Time;durP1;ratioP1;P1;durP2;ratioP2;P2;SDS_P1;SDS_P2;PMS_P1;PMS_P2;Temp;Humidity;BMP_temperature;BMP_pressure;BME280_temperature;BME280_humidity;BME280_pressure;Samples;Min_cycle;Max_cycle;Signal;HPM_P1;HPM_P2
2023/07/24 05:09:27;;;;;;;;;;;;;;;;;;5026179;28;19931;-40
2023/07/24 05:11:53;;;;;;;;;;;;;;;;;;5030433;28;19996;-40
2023/07/24 05:14:19;;;;;;;;;;;;;;;;;;5030731;28;19915;-40
2023/07/24 05:16:44;;;;;;;;;;;;;;;;;;5030802;28;19920;-40
2023/07/24 05:19:10;;;;;;;;;;;;;;;;;;5030407;28;19917;-41
2023/07/24 05:21:36;;;;;;;;;;;;;;;;;;5030585;28;19936;-41
2023/07/24 05:24:02;;;;;;;;;;;;;;;;;;5030523;28;19967;-41
2023/07/24 05:26:28;;;;;;;;;;;;;;;;;;5030649;28;19917;-41
2023/07/24 05:28:54;;;;;;;;;;;;;;;;;;5030418;28;19959;-41
2023/07/24 05:31:20;;;;;;;;;;;;;;;;;;5030391;28;19959;-40
2023/07/24 05:33:46;;;;;;;;;;;;;;;;;;5029465;28;20311;-41
2023/07/24 05:36:11;;;;;;;;;;;;;;;;;;5031218;28;20295;-40
2023/07/24 05:38:37;;;;;;;;;;;;;;;;;;5030214;28;19916;-40
2023/07/24 05:41:03;;;;;;;;;;;;;;;;;;5030777;28;19913;-40
2023/07/24 05:43:29;;;;;;;;;;;;;;;;;;5030694;28;19924;-41
2023/07/24 05:45:55;;;;;;;;;;;;;;;;;;5030947;28;19917;-40
2023/07/24 05:48:21;;;;;;;;;;;;;;;;;;5030269;28;19913;-40
2023/07/24 05:50:47;;;;;;;;;;;;;;;;;;5031336;28;19913;-42
2023/07/24 05:53:13;;;;;;;;;;;;;;;;;;5030969;28;19920;-41
2023/07/24 05:55:39;;;;;;;;;;;;;;;;;;5030926;28;20007;-40
2023/07/24 05:58:05;;;;;;;;;;;;;;;;;;5030748;28;19909;-41
2023/07/24 06:00:31;;;;;;;;;;;;;;;;;;5030170;28;20414;-41
2023/07/24 06:02:56;;;;;;;;;;;;;;;;;;5030330;28;19959;-41
2023/07/24 06:05:22;;;;;;;;;;;;;;;;;;5030822;28;19916;-40
2023/07/24 06:07:48;;;;;;;;;;;;;;;;;;5030614;28;19991;-41
2023/07/24 06:10:14;;;;;;;;;;;;;;;;;;5029578;28;20031;-41
2023/07/24 06:12:40;;;;;;;;;;;;;;;;;;5030885;28;20283;-40
2023/07/24 06:15:06;;;;;;;;;;;;;;;;;;5029769;28;19927;-40
2023/07/24 06:17:32;;;;;;;;;;;;;;;;;;5026460;28;19953;-40
2023/07/24 06:19:58;;;;;;;;;;;;;;;;;;5030238;28;19909;-41
2023/07/24 06:22:24;;;;;;;;;;;;;;;;;;5030565;28;19917;-40
2023/07/24 06:24:49;;;;;;;;;;;;;;;;;;5031855;28;19909;-40
2023/07/24 06:27:15;;;;;;;;;;;;;;;;;;5030980;28;20644;-40
2023/07/24 06:29:41;;;;;;;;;;;;;;;;;;5026587;28;19967;-40
2023/07/24 06:32:07;;;;;;;;;;;;;;;;;;5033957;28;19913;-40
2023/07/24 06:34:33;;;;;;;;;;;;;;;;;;5028886;28;19913;-40
2023/07/24 06:36:59;;;;;;;;;;;;;;;;;;5030406;28;19909;-40
2023/07/24 06:39:25;;;;;;;;;;;;;;;;;;5030352;28;19999;-40
2023/07/24 06:41:51;;;;;;;;;;;;;;;;;;5030442;28;20395;-39
2023/07/24 06:44:17;;;;;;;;;;;;;;;;;;5030666;28;19915;-39
2023/07/24 06:46:43;;;;;;;;;;;;;;;;;;5030242;28;20284;-40
2023/07/24 06:49:10;;;;;;;;;;;;;;;;;;5032082;28;20386;-39
2023/07/24 06:51:36;;;;;;;;;;;;;;;;;;5034512;28;19910;-40
2023/07/24 06:54:02;;;;;;;;;;;;;;;;;;5034475;28;20017;-39
2023/07/24 06:56:28;;;;;;;;;;;;;;;;;;5034665;28;19913;-40
2023/07/24 06:58:54;;;;;;;;;;;;;;;;;;5032987;28;19916;-39
2023/07/24 07:01:20;;;;;;;;;;;;;;;;;;5039923;28;20265;-39
2023/07/24 07:03:46;;;;;;;;;;;;;;;;;;5023048;28;20301;-39
2023/07/24 07:06:12;;;;;;;;;;;;;;;;;;5015295;28;20429;-39
2023/07/24 07:08:38;;;;;;;;;;;;;;;;;;5033994;28;20004;-39
2023/07/24 07:11:04;;;;;;;;;;;;;;;;;;5034251;28;20430;-39
2023/07/24 07:13:30;;;;;;;;;;;;;;;;;;5032274;28;19924;-39
2023/07/24 07:15:56;;;;;;;;;;;;;;;;;;5033164;28;19958;-39
2023/07/24 07:18:21;;;;;;;;;;;;;;;;;;5035133;28;19913;-39
2023/07/24 07:20:47;;;;;;;;;;;;;;;;;;5036592;28;20287;-39
2023/07/24 07:23:13;;;;;;;;;;;;;;;;;;5034231;28;19999;-39
2023/07/24 07:25:39;;;;;;;;;;;;;;;;;;5044863;28;20387;-39
2023/07/24 07:28:05;;;;;;;;;;;;;;;;;;5033451;28;19913;-39
2023/07/24 07:30:31;;;;;;;;;;;;;;;;;;5033194;28;20284;-39
2023/07/24 07:32:57;;;;;;;;;;;;;;;;;;5034682;28;19913;-39
2023/07/24 07:35:23;;;;;;;;;;;;;;;;;;5034821;28;20382;-39
2023/07/24 07:37:48;;;;;;;;;;;;;;;;;;5034200;28;20402;-40
2023/07/24 07:40:14;;;;;;;;;;;;;;;;;;5033797;28;19916;-39
2023/07/24 07:42:41;;;;;;;;;;;;;;;;;;5034405;28;19913;-42
2023/07/24 07:45:06;;;;;;;;;;;;;;;;;;5034333;28;19915;-40
2023/07/24 07:47:32;;;;;;;;;;;;;;;;;;5033380;28;19917;-39
2023/07/24 07:49:58;;;;;;;;;;;;;;;;;;5034234;28;19910;-39
2023/07/24 07:52:24;;;;;;;;;;;;;;;;;;5034224;28;19921;-39
2023/07/24 07:54:50;;;;;;;;;;;;;;;;;;5034302;28;19944;-40
2023/07/24 07:57:16;;;;;;;;;;;;;;;;;;5034300;28;19959;-39
2023/07/24 07:59:42;;;;;;;;;;;;;;;;;;5033942;28;19920;-40
2023/07/24 08:02:08;;;;;;;;;;;;;;;;;;5033655;28;19909;-39
2023/07/24 08:04:34;;;;;;;;;;;;;;;;;;5032825;28;19913;-39
2023/07/24 08:06:59;;;;;;;;;;;;;;;;;;5034090;28;19913;-39
2023/07/24 08:09:25;;;;;;;;;;;;;;;;;;5033650;28;20299;-40
2023/07/24 08:11:51;;;;;;;;;;;;;;;;;;5033683;28;19947;-39
2023/07/24 08:14:17;;;;;;;;;;;;;;;;;;5034151;28;19920;-39
2023/07/24 08:16:43;;;;;;;;;;;;;;;;;;5033943;28;20343;-39
2023/07/24 08:19:09;;;;;;;;;;;;;;;;;;5032704;28;19909;-39
2023/07/24 08:21:35;;;;;;;;;;;;;;;;;;5032981;28;19909;-40
2023/07/24 08:24:01;;;;;;;;;;;;;;;;;;5035136;28;20414;-40
2023/07/24 08:26:27;;;;;;;;;;;;;;;;;;5031996;28;20372;-40
2023/07/24 08:28:53;;;;;;;;;;;;;;;;;;5032496;28;19921;-40
2023/07/24 08:31:19;;;;;;;;;;;;;;;;;;5031984;28;19913;-40
2023/07/24 08:33:45;;;;;;;;;;;;;;;;;;5032702;28;20395;-40
2023/07/24 08:36:14;;;;;;;;;;;;;;;;;;5032951;28;19931;-40
2023/07/24 08:38:40;;;;;;;;;;;;;;;;;;5032350;28;20012;-40
2023/07/24 08:41:06;;;;;;;;;;;;;;;;;;5033388;28;19917;-40
2023/07/24 08:43:32;;;;;;;;;;;;;;;;;;5032830;28;20003;-40
2023/07/24 08:45:58;;;;;;;;;;;;;;;;;;5033163;28;19991;-40
2023/07/24 08:48:24;;;;;;;;;;;;;;;;;;5032961;28;19916;-41
2023/07/24 08:50:50;;;;;;;;;;;;;;;;;;5033110;28;19913;-41
2023/07/24 08:53:18;;;;;;;;;;;;;;;;;;5033094;28;19913;-40
2023/07/24 08:55:43;;;;;;;;;;;;;;;;;;5033016;28;19913;-41
2023/07/24 08:58:09;;;;;;;;;;;;;;;;;;5032590;28;19909;-41
2023/07/24 09:00:35;;;;;;;;;;;;;;;;;;5032858;28;19920;-40
2023/07/24 09:03:01;;;;;;;;;;;;;;;;;;5032197;28;20370;-42
2023/07/24 09:05:27;;;;;;;;;;;;;;;;;;5032720;28;19909;-41
2023/07/24 09:07:53;;;;;;;;;;;;;;;;;;5032537;28;19909;-43
2023/07/24 09:10:19;;;;;;;;;;;;;;;;;;5033072;28;19917;-42
2023/07/24 09:12:45;;;;;;;;;;;;;;;;;;5031795;28;19913;-41
2023/07/24 09:15:10;;;;;;;;;;;;;;;;;;5032637;28;19955;-42
2023/07/24 09:17:36;;;;;;;;;;;;;;;;;;5032556;28;19978;-41
2023/07/24 09:20:03;;;;;;;;;;;;;;;;;;5031906;28;19921;-41
2023/07/24 09:22:29;;;;;;;;;;;;;;;;;;5032442;28;20419;-42
2023/07/24 09:24:55;;;;;;;;;;;;;;;;;;5030562;28;19928;-42
2023/07/24 09:27:21;;;;;;;;;;;;;;;;;;5032036;28;19975;-41
2023/07/24 09:29:47;;;;;;;;;;;;;;;;;;5032312;28;20287;-41
2023/07/24 09:32:13;;;;;;;;;;;;;;;;;;5026748;28;19964;-41
2023/07/24 09:34:39;;;;;;;;;;;;;;;;;;5029440;28;19913;-42
2023/07/24 09:37:04;;;;;;;;;;;;;;;;;;5031395;28;19909;-42
2023/07/24 09:39:30;;;;;;;;;;;;;;;;;;5031512;28;19952;-42
2023/07/24 09:41:56;;;;;;;;;;;;;;;;;;5031413;28;20296;-41
2023/07/24 09:44:22;;;;;;;;;;;;;;;;;;5031308;28;19921;-42
2023/07/24 09:46:48;;;;;;;;;;;;;;;;;;5031648;28;19941;-42
2023/07/24 09:49:14;;;;;;;;;;;;;;;;;;5031182;28;20442;-42
2023/07/24 09:51:40;;;;;;;;;;;;;;;;;;5030994;28;19956;-41
2023/07/24 09:54:07;;;;;;;;;;;;;;;;;;5031382;28;19913;-42
2023/07/24 09:56:33;;;;;;;;;;;;;;;;;;5031170;28;19916;-41
2023/07/24 09:58:58;;;;;;;;;;;;;;;;;;5030997;28;20315;-46
2023/07/24 10:01:24;;;;;;;;;;;;;;;;;;5031095;28;19909;-41
2023/07/24 10:03:51;;;;;;;;;;;;;;;;;;5031109;28;19910;-41
2023/07/24 10:06:17;;;;;;;;;;;;;;;;;;5031117;28;19910;-41
2023/07/24 10:08:43;;;;;;;;;;;;;;;;;;5030192;28;19936;-41
2023/07/24 10:11:09;;;;;;;;;;;;;;;;;;5028728;28;20319;-41
2023/07/24 10:13:36;;;;;;;;;;;;;;;;;;5025834;28;19920;-41
2023/07/24 10:16:03;;;;;;;;;;;;;;;;;;5011159;28;19952;-41
2023/07/24 10:18:32;;;;;;;;;;;;;;;;;;5030343;28;19913;-41
2023/07/24 10:20:57;;;;;;;;;;;;;;;;;;5030642;28;19909;-42
2023/07/24 10:23:23;;;;;;;;;;;;;;;;;;5028446;28;20606;-41
2023/07/24 10:25:49;;;;;;;;;;;;;;;;;;5030835;28;19920;-41
2023/07/24 10:28:17;;;;;;;;;;;;;;;;;;5030675;28;20299;-41
2023/07/24 10:30:43;;;;;;;;;;;;;;;;;;5036551;28;19913;-41
2023/07/24 10:33:09;;;;;;;;;;;;;;;;;;5030170;28;20292;-41
2023/07/24 10:35:37;;;;;;;;;;;;;;;;;;5028413;28;21587;-41
2023/07/24 10:38:03;;;;;;;;;;;;;;;;;;5010231;28;19913;-41
2023/07/24 10:40:30;;;;;;;;;;;;;;;;;;5017829;28;19948;-41
2023/07/24 10:42:56;;;;;;;;;;;;;;;;;;5032806;28;20003;-40
2023/07/24 10:45:22;;;;;;;;;;;;;;;;;;5029057;28;20012;-41
2023/07/24 10:47:48;;;;;;;;;;;;;;;;;;5028604;28;19913;-40
2023/07/24 10:50:13;;;;;;;;;;;;;;;;;;5047875;28;19975;-40
2023/07/24 10:52:40;;;;;;;;;;;;;;;;;;5028680;28;19952;-40
2023/07/24 10:55:06;;;;;;;;;;;;;;;;;;5035221;28;20020;-41
2023/07/24 10:57:32;;;;;;;;;;;;;;;;;;5026268;28;20008;-41
2023/07/24 10:59:58;;;;;;;;;;;;;;;;;;5029272;28;19909;-40
2023/07/24 11:02:24;;;;;;;;;;;;;;;;;;5029193;28;19917;-40
2023/07/24 11:04:50;;;;;;;;;;;;;;;;;;5029611;28;19913;-41
2023/07/24 11:07:16;;;;;;;;;;;;;;;;;;5027181;28;19910;-40
2023/07/24 11:09:42;;;;;;;;;;;;;;;;;;5011428;28;19917;-41
2023/07/24 11:12:07;;;;;;;;;;;;;;;;;;5026140;28;19913;-41
2023/07/24 11:14:33;;;;;;;;;;;;;;;;;;5026712;28;19920;-40
2023/07/24 11:16:59;;;;;;;;;;;;;;;;;;5027223;28;20062;-40
2023/07/24 11:19:25;;;;;;;;;;;;;;;;;;5028018;28;19936;-41
2023/07/24 11:21:51;;;;;;;;;;;;;;;;;;5027098;28;19913;-41
2023/07/24 11:24:17;;;;;;;;;;;;;;;;;;5027276;28;19909;-40
2023/07/24 11:26:43;;;;;;;;;;;;;;;;;;5026415;28;20280;-40
2023/07/24 11:29:09;;;;;;;;;;;;;;;;;;5026160;28;19914;-40
2023/07/24 11:31:34;;;;;;;;;;;;;;;;;;5042665;28;19968;-40
2023/07/24 11:34:00;;;;;;;;;;;;;;;;;;5027472;28;19917;-40
2023/07/24 11:36:26;;;;;;;;;;;;;;;;;;5029097;28;19917;-40
2023/07/24 11:38:52;;;;;;;;;;;;;;;;;;5029683;28;19913;-40
2023/07/24 11:41:18;;;;;;;;;;;;;;;;;;5028109;28;19938;-40
2023/07/24 11:43:44;;;;;;;;;;;;;;;;;;5029848;28;19916;-40
2023/07/24 11:46:10;;;;;;;;;;;;;;;;;;5030046;28;20004;-40
2023/07/24 11:48:36;;;;;;;;;;;;;;;;;;5027837;28;20415;-40
2023/07/24 11:51:01;;;;;;;;;;;;;;;;;;5029346;28;20073;-40
2023/07/24 11:53:27;;;;;;;;;;;;;;;;;;5027895;28;19944;-40
2023/07/24 11:55:53;;;;;;;;;;;;;;;;;;5032957;28;19971;-40
2023/07/24 11:58:20;;;;;;;;;;;;;;;;;;5039792;28;19920;-41
2023/07/24 12:00:46;;;;;;;;;;;;;;;;;;5049275;28;19915;-41
2023/07/24 12:03:12;;;;;;;;;;;;;;;;;;5043376;28;20342;-40
2023/07/24 12:05:37;;;;;;;;;;;;;;;;;;5029481;28;19970;-41
2023/07/24 12:08:03;;;;;;;;;;;;;;;;;;5031353;28;19913;-40
2023/07/24 12:10:29;;;;;;;;;;;;;;;;;;5032717;28;19917;-40
2023/07/24 12:12:55;;;;;;;;;;;;;;;;;;5026080;28;19991;-41
2023/07/24 12:15:21;;;;;;;;;;;;;;;;;;5022600;28;19918;-40
2023/07/24 12:17:47;;;;;;;;;;;;;;;;;;5028664;28;20079;-40
2023/07/24 12:20:13;;;;;;;;;;;;;;;;;;5029119;28;20504;-40
2023/07/24 12:22:39;;;;;;;;;;;;;;;;;;5032648;28;19913;-41
2023/07/24 12:25:05;;;;;;;;;;;;;;;;;;5027475;28;20327;-40
2023/07/24 12:27:31;;;;;;;;;;;;;;;;;;5029296;28;20195;-41
2023/07/24 12:29:56;;;;;;;;;;;;;;;;;;5028380;28;19913;-40
2023/07/24 12:32:22;;;;;;;;;;;;;;;;;;5029003;28;19913;-41
2023/07/24 12:34:48;;;;;;;;;;;;;;;;;;5028091;28;19917;-40
2023/07/24 12:37:14;;;;;;;;;;;;;;;;;;5028193;28;19975;-41
2023/07/24 12:39:40;;;;;;;;;;;;;;;;;;5027327;28;20286;-41
2023/07/24 12:42:06;;;;;;;;;;;;;;;;;;5027038;28;20305;-41
2023/07/24 12:44:32;;;;;;;;;;;;;;;;;;5028219;28;20020;-41
2023/07/24 12:46:58;;;;;;;;;;;;;;;;;;5027506;28;19992;-41
2023/07/24 12:49:24;;;;;;;;;;;;;;;;;;5026787;28;20059;-40
2023/07/24 12:51:50;;;;;;;;;;;;;;;;;;5030447;28;20294;-40
2023/07/24 12:54:17;;;;;;;;;;;;;;;;;;5028927;28;19926;-41
2023/07/24 12:56:43;;;;;;;;;;;;;;;;;;5028459;28;20121;-41
2023/07/24 12:59:09;;;;;;;;;;;;;;;;;;5027844;28;20308;-41
2023/07/24 13:01:35;;;;;;;;;;;;;;;;;;5026189;28;19918;-40
2023/07/24 13:04:01;;;;;;;;;;;;;;;;;;5028359;28;19909;-40
2023/07/24 13:06:27;;;;;;;;;;;;;;;;;;5026902;28;19979;-41
2023/07/24 13:08:53;;;;;;;;;;;;;;;;;;5026953;28;19957;-41
2023/07/24 13:11:18;;;;;;;;;;;;;;;;;;5023898;28;19917;-41
2023/07/24 13:13:44;;;;;;;;;;;;;;;;;;5026058;28;19917;-41
2023/07/24 13:16:10;;;;;;;;;;;;;;;;;;5027132;28;20319;-41
2023/07/24 13:18:36;;;;;;;;;;;;;;;;;;5024736;28;19914;-41
2023/07/24 13:21:02;;;;;;;;;;;;;;;;;;5024613;28;19928;-41
2023/07/24 13:23:28;;;;;;;;;;;;;;;;;;5025814;28;20546;-41
2023/07/24 13:25:54;;;;;;;;;;;;;;;;;;5023996;28;19913;-41
2023/07/24 13:28:20;;;;;;;;;;;;;;;;;;5022986;28;20118;-41
2023/07/24 13:30:46;;;;;;;;;;;;;;;;;;5023803;28;19917;-41
2023/07/24 13:33:12;;;;;;;;;;;;;;;;;;5027839;28;19983;-40
2023/07/24 13:35:38;;;;;;;;;;;;;;;;;;5026286;28;20379;-41
2023/07/24 13:38:04;;;;;;;;;;;;;;;;;;5024521;28;19913;-41
2023/07/24 13:40:29;;;;;;;;;;;;;;;;;;5026945;28;19913;-41
2023/07/24 13:42:55;;;;;;;;;;;;;;;;;;5027504;28;19913;-41
2023/07/24 13:45:21;;;;;;;;;;;;;;;;;;5022329;28;19940;-41
2023/07/24 13:47:47;;;;;;;;;;;;;;;;;;5024705;28;19959;-41
2023/07/24 13:50:13;;;;;;;;;;;;;;;;;;5024719;28;20331;-41
2023/07/24 13:52:39;;;;;;;;;;;;;;;;;;5024649;28;20052;-41
2023/07/24 13:55:05;;;;;;;;;;;;;;;;;;5024760;28;20438;-41
2023/07/24 13:57:31;;;;;;;;;;;;;;;;;;5024755;28;20028;-41
2023/07/24 13:59:57;;;;;;;;;;;;;;;;;;5024484;28;19913;-41
2023/07/24 14:02:22;;;;;;;;;;;;;;;;;;5025143;28;19920;-41
2023/07/24 14:04:48;;;;;;;;;;;;;;;;;;5023909;28;20091;-41
2023/07/24 14:07:14;;;;;;;;;;;;;;;;;;5025084;28;19920;-42
2023/07/24 14:09:40;;;;;;;;;;;;;;;;;;5027722;28;19913;-42
2023/07/24 14:12:06;;;;;;;;;;;;;;;;;;5024039;28;19925;-41
2023/07/24 14:14:32;;;;;;;;;;;;;;;;;;5025385;28;19920;-41
2023/07/24 14:16:58;;;;;;;;;;;;;;;;;;5025358;28;19921;-41
2023/07/24 14:19:24;;;;;;;;;;;;;;;;;;5025047;28;19917;-42
2023/07/24 14:21:49;;;;;;;;;;;;;;;;;;5024943;28;20283;-42
2023/07/24 14:24:15;;;;;;;;;;;;;;;;;;5023083;28;19913;-42
2023/07/24 14:26:41;;;;;;;;;;;;;;;;;;5026876;28;20433;-42
2023/07/24 14:29:07;;;;;;;;;;;;;;;;;;5025597;28;20015;-42
2023/07/24 14:31:33;;;;;;;;;;;;;;;;;;5023590;28;19967;-42
2023/07/24 14:33:59;;;;;;;;;;;;;;;;;;5025737;28;19917;-42
2023/07/24 14:36:27;;;;;;;;;;;;;;;;;;5024980;28;20441;-42
2023/07/24 14:38:53;;;;;;;;;;;;;;;;;;5024621;28;19961;-42
2023/07/24 14:41:19;;;;;;;;;;;;;;;;;;5020085;28;20390;-42
2023/07/24 14:43:45;;;;;;;;;;;;;;;;;;5025270;28;20225;-42
2023/07/24 14:46:11;;;;;;;;;;;;;;;;;;5025826;28;19913;-43
2023/07/24 14:48:37;;;;;;;;;;;;;;;;;;5025420;28;20410;-42
2023/07/24 14:51:03;;;;;;;;;;;;;;;;;;5023824;28;20060;-42
2023/07/24 14:53:28;;;;;;;;;;;;;;;;;;5023976;28;19971;-42
2023/07/24 14:55:54;;;;;;;;;;;;;;;;;;5025866;28;19963;-42
2023/07/24 14:58:20;;;;;;;;;;;;;;;;;;5025878;28;20395;-42
2023/07/24 15:00:46;;;;;;;;;;;;;;;;;;5024838;28;19960;-43
2023/07/24 15:03:12;;;;;;;;;;;;;;;;;;5026920;28;19923;-42
2023/07/24 15:05:38;;;;;;;;;;;;;;;;;;5025307;28;19920;-41
2023/07/24 15:08:04;;;;;;;;;;;;;;;;;;5025231;28;20268;-40
2023/07/24 15:10:30;;;;;;;;;;;;;;;;;;5025310;28;19924;-41
2023/07/24 15:12:56;;;;;;;;;;;;;;;;;;5027550;28;19920;-41
2023/07/24 15:15:22;;;;;;;;;;;;;;;;;;5029713;28;20007;-42
2023/07/24 15:17:47;;;;;;;;;;;;;;;;;;5040569;28;19964;-40
2023/07/24 15:20:14;;;;;;;;;;;;;;;;;;5031112;28;19913;-40
2023/07/24 15:22:40;;;;;;;;;;;;;;;;;;5027969;28;19913;-41
2023/07/24 15:25:06;;;;;;;;;;;;;;;;;;5028326;28;19913;-41
2023/07/24 15:27:32;;;;;;;;;;;;;;;;;;5028016;28;19975;-40
2023/07/24 15:29:58;;;;;;;;;;;;;;;;;;5028528;28;20245;-41
2023/07/24 15:32:24;;;;;;;;;;;;;;;;;;5027357;28;19927;-41
2023/07/24 15:34:50;;;;;;;;;;;;;;;;;;5027953;28;20384;-41
2023/07/24 15:37:15;;;;;;;;;;;;;;;;;;5026609;28;19913;-39
2023/07/24 15:39:41;;;;;;;;;;;;;;;;;;5027487;28;19917;-42
2023/07/24 15:42:07;;;;;;;;;;;;;;;;;;5026075;28;19921;-41
2023/07/24 15:44:33;;;;;;;;;;;;;;;;;;5027168;28;19913;-42
2023/07/24 15:46:59;;;;;;;;;;;;;;;;;;5027087;28;20101;-41
2023/07/24 15:49:25;;;;;;;;;;;;;;;;;;5026717;28;19917;-41
2023/07/24 15:51:51;;;;;;;;;;;;;;;;;;5023716;28;19974;-42
2023/07/24 15:54:17;;;;;;;;;;;;;;;;;;5026881;28;20208;-42
2023/07/24 15:56:43;;;;;;;;;;;;;;;;;;5028185;28;19967;-41
2023/07/24 15:59:09;;;;;;;;;;;;;;;;;;5025997;28;19936;-42
2023/07/24 16:01:35;;;;;;;;;;;;;;;;;;5024735;28;19948;-41
2023/07/24 16:04:01;;;;;;;;;;;;;;;;;;5026004;28;19913;-41
2023/07/24 16:06:27;;;;;;;;;;;;;;;;;;5026692;28;19913;-42
2023/07/24 16:08:53;;;;;;;;;;;;;;;;;;5027406;28;19913;-42
2023/07/24 16:11:19;;;;;;;;;;;;;;;;;;5026501;28;20056;-43
2023/07/24 16:13:44;;;;;;;;;;;;;;;;;;5027050;28;19924;-43
2023/07/24 16:16:10;;;;;;;;;;;;;;;;;;5022459;28;19914;-42
2023/07/24 16:18:36;;;;;;;;;;;;;;;;;;5026667;28;19963;-43
2023/07/24 16:21:02;;;;;;;;;;;;;;;;;;5024363;28;19924;-43
2023/07/24 16:23:28;;;;;;;;;;;;;;;;;;5026393;28;19913;-42
2023/07/24 16:25:54;;;;;;;;;;;;;;;;;;5025412;28;19935;-42
2023/07/24 16:28:20;;;;;;;;;;;;;;;;;;5042683;28;19967;-43
2023/07/24 16:30:46;;;;;;;;;;;;;;;;;;5028227;28;20004;-43
2023/07/24 16:33:12;;;;;;;;;;;;;;;;;;5027692;28;19978;-43
2023/07/24 16:35:38;;;;;;;;;;;;;;;;;;5027721;28;19920;-42
2023/07/24 16:38:03;;;;;;;;;;;;;;;;;;5027485;28;19924;-42
2023/07/24 16:40:29;;;;;;;;;;;;;;;;;;5027231;28;19913;-42
2023/07/24 16:42:55;;;;;;;;;;;;;;;;;;5028259;28;19991;-42
2023/07/24 16:45:21;;;;;;;;;;;;;;;;;;5029255;28;20400;-42
2023/07/24 16:47:47;;;;;;;;;;;;;;;;;;5030339;28;19956;-43
2023/07/24 16:50:13;;;;;;;;;;;;;;;;;;5028928;28;19941;-42
2023/07/24 16:52:39;;;;;;;;;;;;;;;;;;5027974;28;19917;-42
2023/07/24 16:55:05;;;;;;;;;;;;;;;;;;5029487;28;20538;-42
2023/07/24 16:57:31;;;;;;;;;;;;;;;;;;5028617;28;19979;-41
2023/07/24 16:59:56;;;;;;;;;;;;;;;;;;5025637;28;19914;-42
2023/07/24 17:02:22;;;;;;;;;;;;;;;;;;5022580;28;20023;-42
2023/07/24 17:04:48;;;;;;;;;;;;;;;;;;5014612;28;20322;-42
2023/07/24 17:07:14;;;;;;;;;;;;;;;;;;5027466;28;19989;-42
2023/07/24 17:09:40;;;;;;;;;;;;;;;;;;5021520;28;19928;-42
2023/07/24 17:12:06;;;;;;;;;;;;;;;;;;5031576;28;19913;-42
2023/07/24 17:14:32;;;;;;;;;;;;;;;;;;5023468;28;19925;-42
2023/07/24 17:16:59;;;;;;;;;;;;;;;;;;5028882;28;20545;-41
2023/07/24 17:19:25;;;;;;;;;;;;;;;;;;5026593;28;19967;-42
2023/07/24 17:21:51;;;;;;;;;;;;;;;;;;5026893;28;19989;-42
2023/07/24 17:24:17;;;;;;;;;;;;;;;;;;5027495;28;19923;-41
2023/07/24 17:26:43;;;;;;;;;;;;;;;;;;5028501;28;19966;-42
2023/07/24 17:29:09;;;;;;;;;;;;;;;;;;5026849;28;19983;-42
2023/07/24 17:31:35;;;;;;;;;;;;;;;;;;5035423;28;19954;-42
2023/07/24 17:34:02;;;;;;;;;;;;;;;;;;5026985;28;19951;-41
2023/07/24 17:36:28;;;;;;;;;;;;;;;;;;5028111;28;19913;-42
2023/07/24 17:38:54;;;;;;;;;;;;;;;;;;5028893;28;20322;-43
2023/07/24 17:41:19;;;;;;;;;;;;;;;;;;5027508;28;19913;-42
2023/07/24 17:43:45;;;;;;;;;;;;;;;;;;5027853;28;19913;-41
2023/07/24 17:46:11;;;;;;;;;;;;;;;;;;5027806;28;20309;-45
2023/07/24 17:48:37;;;;;;;;;;;;;;;;;;5026234;28;19920;-44
2023/07/24 17:51:03;;;;;;;;;;;;;;;;;;5026079;28;19936;-47
2023/07/24 17:53:29;;;;;;;;;;;;;;;;;;5028874;28;19971;-45
2023/07/24 17:55:55;;;;;;;;;;;;;;;;;;5024590;28;20027;-44
2023/07/24 17:58:21;;;;;;;;;;;;;;;;;;5032749;28;19931;-45
2023/07/24 18:00:46;;;;;;;;;;;;;;;;;;5024544;28;19931;-42
2023/07/24 18:03:13;;;;;;;;;;;;;;;;;;5025645;28;19913;-42
2023/07/24 18:05:39;;;;;;;;;;;;;;;;;;5024962;28;20025;-43
2023/07/24 18:08:05;;;;;;;;;;;;;;;;;;5022747;28;19963;-45
2023/07/24 18:10:31;;;;;;;;;;;;;;;;;;5024104;28;20453;-44
2023/07/24 18:12:57;;;;;;;;;;;;;;;;;;5028733;28;19920;-43
2023/07/24 18:15:23;;;;;;;;;;;;;;;;;;5025232;28;19977;-44
2023/07/24 18:17:49;;;;;;;;;;;;;;;;;;5025016;28;19917;-44
2023/07/24 18:20:15;;;;;;;;;;;;;;;;;;5024056;28;19943;-43
2023/07/24 18:22:42;;;;;;;;;;;;;;;;;;5024563;28;19951;-44
2023/07/24 18:25:08;;;;;;;;;;;;;;;;;;5023797;28;20368;-43
2023/07/24 18:27:34;;;;;;;;;;;;;;;;;;5023521;28;19920;-43
2023/07/24 18:30:00;;;;;;;;;;;;;;;;;;5025575;28;19944;-44
2023/07/24 18:32:26;;;;;;;;;;;;;;;;;;5025372;28;19920;-44
2023/07/24 18:34:52;;;;;;;;;;;;;;;;;;5025497;28;19983;-44
2023/07/24 18:37:18;;;;;;;;;;;;;;;;;;5025153;28;19954;-45
2023/07/24 18:39:44;;;;;;;;;;;;;;;;;;5025995;28;20121;-44
2023/07/24 18:42:10;;;;;;;;;;;;;;;;;;5026958;28;20338;-44
2023/07/24 18:44:36;;;;;;;;;;;;;;;;;;5026132;28;20337;-43
2023/07/24 18:47:01;;;;;;;;;;;;;;;;;;5026001;28;19947;-42
2023/07/24 18:49:27;;;;;;;;;;;;;;;;;;5025068;28;20433;-44
2023/07/24 18:51:53;;;;;;;;;;;;;;;;;;5023065;28;19967;-43
2023/07/24 18:54:21;;;;;;;;;;;;;;;;;;5025026;28;20446;-44
2023/07/24 18:56:47;;;;;;;;;;;;;;;;;;5025390;28;19997;-44
2023/07/24 18:59:12;;;;;;;;;;;;;;;;;;5017528;28;20048;-43
2023/07/24 19:01:38;;;;;;;;;;;;;;;;;;5024204;28;19927;-43
2023/07/24 19:04:04;;;;;;;;;;;;;;;;;;5025103;28;19947;-44
2023/07/24 19:06:30;;;;;;;;;;;;;;;;;;5026382;28;19981;-43
2023/07/24 19:08:56;;;;;;;;;;;;;;;;;;5024506;28;19923;-44
2023/07/24 19:11:22;;;;;;;;;;;;;;;;;;5023966;28;19990;-45
2023/07/24 19:13:48;;;;;;;;;;;;;;;;;;5022122;28;19917;-43
2023/07/24 19:16:14;;;;;;;;;;;;;;;;;;5024875;28;20018;-44
2023/07/24 19:18:40;;;;;;;;;;;;;;;;;;5025313;28;19928;-43
2023/07/24 19:21:06;;;;;;;;;;;;;;;;;;5024255;28;20299;-44
2023/07/24 19:23:32;;;;;;;;;;;;;;;;;;5039614;28;19970;-43
2023/07/24 19:25:58;;;;;;;;;;;;;;;;;;5024759;28;19924;-44
2023/07/24 19:28:24;;;;;;;;;;;;;;;;;;5024125;28;19967;-43
2023/07/24 19:30:50;;;;;;;;;;;;;;;;;;5023266;28;19925;-42
2023/07/24 19:33:16;;;;;;;;;;;;;;;;;;5024932;28;19944;-42
2023/07/24 19:35:42;;;;;;;;;;;;;;;;;;5025911;28;19935;-42
2023/07/24 19:38:10;;;;;;;;;;;;;;;;;;5020123;28;19931;-42
2023/07/24 19:40:36;;;;;;;;;;;;;;;;;;5020581;28;20368;-43
2023/07/24 19:43:02;;;;;;;;;;;;;;;;;;5024420;28;19981;-44
2023/07/24 19:45:28;;;;;;;;;;;;;;;;;;5024928;28;20321;-43
2023/07/24 19:47:54;;;;;;;;;;;;;;;;;;5023558;28;19940;-44
2023/07/24 19:50:20;;;;;;;;;;;;;;;;;;5022161;28;20510;-43
2023/07/24 19:52:48;;;;;;;;;;;;;;;;;;5024745;28;19965;-43
2023/07/24 19:55:14;;;;;;;;;;;;;;;;;;5023740;28;19924;-43
2023/07/24 19:57:40;;;;;;;;;;;;;;;;;;5026099;28;19944;-43
2023/07/24 20:00:06;;;;;;;;;;;;;;;;;;5026044;28;20008;-43
2023/07/24 20:02:32;;;;;;;;;;;;;;;;;;5026983;28;19928;-43
2023/07/24 20:04:58;;;;;;;;;;;;;;;;;;5026876;28;19913;-43
2023/07/24 20:07:24;;;;;;;;;;;;;;;;;;5027181;28;19956;-43
2023/07/24 20:09:52;;;;;;;;;;;;;;;;;;5030388;28;20287;-42
2023/07/24 20:12:18;;;;;;;;;;;;;;;;;;5027056;28;20376;-43
2023/07/24 20:14:43;;;;;;;;;;;;;;;;;;5028605;28;19920;-43
2023/07/24 20:17:09;;;;;;;;;;;;;;;;;;5027645;28;19983;-42
2023/07/24 20:19:35;;;;;;;;;;;;;;;;;;5027590;28;20013;-42
2023/07/24 20:22:01;;;;;;;;;;;;;;;;;;5027917;28;19937;-44
2023/07/24 20:24:27;;;;;;;;;;;;;;;;;;5026889;28;20395;-43
2023/07/24 20:26:53;;;;;;;;;;;;;;;;;;5027535;28;19920;-43
2023/07/24 20:29:19;;;;;;;;;;;;;;;;;;5026754;28;20464;-42
2023/07/24 20:31:45;;;;;;;;;;;;;;;;;;5027041;28;19944;-42
2023/07/24 20:34:11;;;;;;;;;;;;;;;;;;5027305;28;19947;-42
2023/07/24 20:36:38;;;;;;;;;;;;;;;;;;5025625;28;19913;-40
2023/07/24 20:39:04;;;;;;;;;;;;;;;;;;5026107;28;20356;-41
2023/07/24 20:41:30;;;;;;;;;;;;;;;;;;5025206;28;20113;-41
2023/07/24 20:43:56;;;;;;;;;;;;;;;;;;5024685;28;20421;-40
2023/07/24 20:46:22;;;;;;;;;;;;;;;;;;5025789;28;20012;-42
2023/07/24 20:48:47;;;;;;;;;;;;;;;;;;5024920;28;19981;-42
2023/07/24 20:51:14;;;;;;;;;;;;;;;;;;5026848;28;19947;-43
2023/07/24 20:53:40;;;;;;;;;;;;;;;;;;5027052;28;20008;-42
2023/07/24 20:56:06;;;;;;;;;;;;;;;;;;5026461;28;20043;-44
2023/07/24 20:58:32;;;;;;;;;;;;;;;;;;5026280;28;19978;-42
2023/07/24 21:00:58;;;;;;;;;;;;;;;;;;5025073;28;19959;-41
2023/07/24 21:03:24;;;;;;;;;;;;;;;;;;5044464;28;20405;-41
2023/07/24 21:05:50;;;;;;;;;;;;;;;;;;5035273;28;19913;-46
2023/07/24 21:08:16;;;;;;;;;;;;;;;;;;5025885;28;19939;-41
2023/07/24 21:10:41;;;;;;;;;;;;;;;;;;5029053;28;19963;-43
2023/07/24 21:13:09;;;;;;;;;;;;;;;;;;5026786;28;19947;-42
2023/07/24 21:15:35;;;;;;;;;;;;;;;;;;5037319;28;20438;-42
2023/07/24 21:18:01;;;;;;;;;;;;;;;;;;5030949;28;19913;-43
2023/07/24 21:20:27;;;;;;;;;;;;;;;;;;5026271;28;20311;-43
2023/07/24 21:22:52;;;;;;;;;;;;;;;;;;5024988;28;20061;-43
2023/07/24 21:25:18;;;;;;;;;;;;;;;;;;5024301;28;20423;-44
2023/07/24 21:27:44;;;;;;;;;;;;;;;;;;5024887;28;20182;-43
2023/07/24 21:30:10;;;;;;;;;;;;;;;;;;5024768;28;19923;-44
2023/07/24 21:32:36;;;;;;;;;;;;;;;;;;5024325;28;19913;-42
2023/07/24 21:35:02;;;;;;;;;;;;;;;;;;5024125;28;19994;-42
2023/07/24 21:37:28;;;;;;;;;;;;;;;;;;5024525;28;19916;-42
2023/07/24 21:39:54;;;;;;;;;;;;;;;;;;5025555;28;19945;-43
2023/07/24 21:42:20;;;;;;;;;;;;;;;;;;5026403;28;19993;-43
2023/07/24 21:44:46;;;;;;;;;;;;;;;;;;5025247;28;19946;-43